sensor_id;sensor_type;location;lat;lon;timestamp;pressure;altitude;pressure_sealevel;temperature;humidity
42945;BME280;28584;42.636;23.294;2023-05-03T00:00:53;161412.19;;;10.73;61.67
42945;BME280;28584;42.636;23.294;2023-05-03T00:03:19;161406.81;;;10.71;61.06
42945;BME280;28584;42.636;23.294;2023-05-03T00:05:47;161390.78;;;10.65;60.75
42945;BME280;28584;42.636;23.294;2023-05-03T00:08:13;161361.41;;;10.54;60.58
42945;BME280;28584;42.636;23.294;2023-05-03T00:10:39;161338.69;;;10.46;60.48
42945;BME280;28584;42.636;23.294;2023-05-03T00:13:04;161328.00;;;10.42;60.61
42945;BME280;28584;42.636;23.294;2023-05-03T00:15:29;161318.69;;;10.38;60.30
42945;BME280;28584;42.636;23.294;2023-05-03T00:17:55;161307.94;;;10.34;60.47
42945;BME280;28584;42.636;23.294;2023-05-03T00:20:20;161299.97;;;10.31;60.85
42945;BME280;28584;42.636;23.294;2023-05-03T00:22:46;161305.28;;;10.33;61.06
42945;BME280;28584;42.636;23.294;2023-05-03T00:25:12;161314.66;;;10.37;61.22
42945;BME280;28584;42.636;23.294;2023-05-03T00:27:37;161319.97;;;10.39;61.05
42945;BME280;28584;42.636;23.294;2023-05-03T00:30:03;161315.97;;;10.37;60.89
42945;BME280;28584;42.636;23.294;2023-05-03T00:32:29;161318.69;;;10.38;60.90
42945;BME280;28584;42.636;23.294;2023-05-03T00:34:55;161297.28;;;10.30;61.25
42945;BME280;28584;42.636;23.294;2023-05-03T00:37:22;161294.63;;;10.29;61.19
42945;BME280;28584;42.636;23.294;2023-05-03T00:39:47;161283.94;;;10.25;60.98
42945;BME280;28584;42.636;23.294;2023-05-03T00:42:13;161278.56;;;10.23;60.82
42945;BME280;28584;42.636;23.294;2023-05-03T00:44:38;161269.25;;;10.20;60.51
42945;BME280;28584;42.636;23.294;2023-05-03T00:47:04;161257.22;;;10.15;60.64
42945;BME280;28584;42.636;23.294;2023-05-03T00:49:31;161241.19;;;10.09;60.33
42945;BME280;28584;42.636;23.294;2023-05-03T00:51:57;161242.53;;;10.10;60.23
42945;BME280;28584;42.636;23.294;2023-05-03T00:54:26;161246.56;;;10.11;60.30
42945;BME280;28584;42.636;23.294;2023-05-03T00:56:51;161230.47;;;10.05;60.13
42945;BME280;28584;42.636;23.294;2023-05-03T00:59:18;161221.13;;;10.02;60.62
42945;BME280;28584;42.636;23.294;2023-05-03T01:01:47;161206.41;;;9.96;60.82
42945;BME280;28584;42.636;23.294;2023-05-03T01:04:13;161195.72;;;9.92;60.98
42945;BME280;28584;42.636;23.294;2023-05-03T01:09:45;161170.38;;;9.83;62.16
42945;BME280;28584;42.636;23.294;2023-05-03T01:12:19;161165.00;;;9.81;61.96
42945;BME280;28584;42.636;23.294;2023-05-03T01:15:07;161150.31;;;9.75;62.00
42945;BME280;28584;42.636;23.294;2023-05-03T01:17:38;161131.63;;;9.68;61.84
42945;BME280;28584;42.636;23.294;2023-05-03T01:20:06;161115.66;;;9.62;62.31
42945;BME280;28584;42.636;23.294;2023-05-03T01:22:46;161104.94;;;9.58;62.77
42945;BME280;28584;42.636;23.294;2023-05-03T01:25:14;161092.97;;;9.54;63.28
42945;BME280;28584;42.636;23.294;2023-05-03T01:27:40;161084.94;;;9.51;63.20
42945;BME280;28584;42.636;23.294;2023-05-03T01:30:10;161074.28;;;9.47;63.34
42945;BME280;28584;42.636;23.294;2023-05-03T01:33:12;161072.91;;;9.46;63.24
42945;BME280;28584;42.636;23.294;2023-05-03T01:35:56;161066.25;;;9.44;63.83
42945;BME280;28584;42.636;23.294;2023-05-03T01:38:24;161062.25;;;9.42;63.63
42945;BME280;28584;42.636;23.294;2023-05-03T01:40:53;161046.22;;;9.36;64.09
42945;BME280;28584;42.636;23.294;2023-05-03T01:43:21;161043.56;;;9.35;64.13
42945;BME280;28584;42.636;23.294;2023-05-03T01:45:47;161040.91;;;9.34;64.19
42945;BME280;28584;42.636;23.294;2023-05-03T01:48:16;161038.22;;;9.33;63.85
42945;BME280;28584;42.636;23.294;2023-05-03T01:50:41;161031.53;;;9.31;63.72
42945;BME280;28584;42.636;23.294;2023-05-03T01:53:07;161023.53;;;9.28;64.23
42945;BME280;28584;42.636;23.294;2023-05-03T01:55:32;161010.22;;;9.23;64.34
42945;BME280;28584;42.636;23.294;2023-05-03T01:57:58;161010.22;;;9.23;64.82
42945;BME280;28584;42.636;23.294;2023-05-03T02:00:24;160995.53;;;9.17;65.00
42945;BME280;28584;42.636;23.294;2023-05-03T02:02:49;160995.53;;;9.17;65.30
42945;BME280;28584;42.636;23.294;2023-05-03T02:05:15;160984.81;;;9.13;65.39
42945;BME280;28584;42.636;23.294;2023-05-03T02:07:40;160970.13;;;9.08;65.72
42945;BME280;28584;42.636;23.294;2023-05-03T02:10:06;160955.47;;;9.02;66.55
42945;BME280;28584;42.636;23.294;2023-05-03T02:12:32;160951.47;;;9.01;68.04
42945;BME280;28584;42.636;23.294;2023-05-03T02:14:57;160931.47;;;8.93;69.61
42945;BME280;28584;42.636;23.294;2023-05-03T02:17:23;160923.47;;;8.90;71.51
42945;BME280;28584;42.636;23.294;2023-05-03T02:19:52;160932.78;;;8.94;72.09
42945;BME280;28584;42.636;23.294;2023-05-03T02:22:18;160947.44;;;8.99;71.84
42945;BME280;28584;42.636;23.294;2023-05-03T02:24:43;160972.84;;;9.09;70.51
42945;BME280;28584;42.636;23.294;2023-05-03T02:27:08;161003.53;;;9.20;69.46
42945;BME280;28584;42.636;23.294;2023-05-03T02:29:34;161014.22;;;9.24;68.69
42945;BME280;28584;42.636;23.294;2023-05-03T02:32:00;161012.88;;;9.24;69.29
42945;BME280;28584;42.636;23.294;2023-05-03T02:34:26;160998.19;;;9.18;69.31
42945;BME280;28584;42.636;23.294;2023-05-03T02:36:52;160999.53;;;9.19;68.19
42945;BME280;28584;42.636;23.294;2023-05-03T02:39:17;160995.53;;;9.17;67.47
42945;BME280;28584;42.636;23.294;2023-05-03T02:41:43;160968.84;;;9.07;68.05
42945;BME280;28584;42.636;23.294;2023-05-03T02:44:08;160970.13;;;9.08;69.65
42945;BME280;28584;42.636;23.294;2023-05-03T02:46:34;160972.84;;;9.09;70.33
42945;BME280;28584;42.636;23.294;2023-05-03T02:48:59;160955.47;;;9.02;72.68
42945;BME280;28584;42.636;23.294;2023-05-03T02:51:25;160982.16;;;9.12;73.08
42945;BME280;28584;42.636;23.294;2023-05-03T02:53:51;160963.47;;;9.05;74.69
42945;BME280;28584;42.636;23.294;2023-05-03T02:56:16;160979.50;;;9.11;74.28
42945;BME280;28584;42.636;23.294;2023-05-03T02:58:41;160978.16;;;9.11;72.58
42945;BME280;28584;42.636;23.294;2023-05-03T03:01:07;160987.50;;;9.14;72.46
42945;BME280;28584;42.636;23.294;2023-05-03T03:03:32;160987.50;;;9.14;71.99
42945;BME280;28584;42.636;23.294;2023-05-03T03:05:57;160994.19;;;9.17;72.04
42945;BME280;28584;42.636;23.294;2023-05-03T03:08:23;160980.84;;;9.12;72.28
42945;BME280;28584;42.636;23.294;2023-05-03T03:10:48;160980.84;;;9.12;72.60
42945;BME280;28584;42.636;23.294;2023-05-03T03:13:17;160988.81;;;9.15;73.74
42945;BME280;28584;42.636;23.294;2023-05-03T03:15:42;160978.16;;;9.11;75.65
42945;BME280;28584;42.636;23.294;2023-05-03T03:18:08;160982.16;;;9.12;75.65
42945;BME280;28584;42.636;23.294;2023-05-03T03:20:33;160968.84;;;9.07;77.24
42945;BME280;28584;42.636;23.294;2023-05-03T03:22:58;160962.16;;;9.05;79.03
42945;BME280;28584;42.636;23.294;2023-05-03T03:25:24;160958.16;;;9.03;80.52
42945;BME280;28584;42.636;23.294;2023-05-03T03:27:49;160943.50;;;8.98;82.54
42945;BME280;28584;42.636;23.294;2023-05-03T03:30:15;160940.78;;;8.97;81.19
42945;BME280;28584;42.636;23.294;2023-05-03T03:32:40;160919.47;;;8.89;83.01
42945;BME280;28584;42.636;23.294;2023-05-03T03:35:07;160899.44;;;8.81;86.09
42945;BME280;28584;42.636;23.294;2023-05-03T03:37:33;160915.44;;;8.87;87.43
42945;BME280;28584;42.636;23.294;2023-05-03T03:39:59;160896.78;;;8.80;88.26
42945;BME280;28584;42.636;23.294;2023-05-03T03:42:24;160903.44;;;8.83;86.66
42945;BME280;28584;42.636;23.294;2023-05-03T03:44:50;160916.81;;;8.88;86.09
42945;BME280;28584;42.636;23.294;2023-05-03T03:47:15;160920.81;;;8.89;86.26
42945;BME280;28584;42.636;23.294;2023-05-03T03:49:41;160907.44;;;8.84;84.71
42945;BME280;28584;42.636;23.294;2023-05-03T03:52:06;160928.78;;;8.92;85.37
42945;BME280;28584;42.636;23.294;2023-05-03T03:54:32;160932.78;;;8.94;82.39
42945;BME280;28584;42.636;23.294;2023-05-03T03:56:59;161003.53;;;9.20;77.14
42945;BME280;28584;42.636;23.294;2023-05-03T03:59:24;160986.16;;;9.14;75.08
42945;BME280;28584;42.636;23.294;2023-05-03T04:01:50;161031.53;;;9.31;74.04
42945;BME280;28584;42.636;23.294;2023-05-03T04:04:15;161012.88;;;9.24;75.10
42945;BME280;28584;42.636;23.294;2023-05-03T04:06:41;161062.25;;;9.42;72.77
42945;BME280;28584;42.636;23.294;2023-05-03T04:09:06;161072.91;;;9.46;70.69
42945;BME280;28584;42.636;23.294;2023-05-03T04:11:32;161078.28;;;9.48;70.67
42945;BME280;28584;42.636;23.294;2023-05-03T04:13:57;161096.97;;;9.55;71.63
42945;BME280;28584;42.636;23.294;2023-05-03T04:16:22;161107.63;;;9.59;72.72
42945;BME280;28584;42.636;23.294;2023-05-03T04:18:48;161111.66;;;9.61;74.03
42945;BME280;28584;42.636;23.294;2023-05-03T04:21:13;161128.97;;;9.67;74.49
42945;BME280;28584;42.636;23.294;2023-05-03T04:23:38;161143.66;;;9.73;72.69
42945;BME280;28584;42.636;23.294;2023-05-03T04:26:04;161131.63;;;9.68;71.36
42945;BME280;28584;42.636;23.294;2023-05-03T04:28:29;161147.66;;;9.74;71.00
42945;BME280;28584;42.636;23.294;2023-05-03T04:30:55;161159.69;;;9.79;71.12
42945;BME280;28584;42.636;23.294;2023-05-03T04:33:22;161182.41;;;9.87;71.38
42945;BME280;28584;42.636;23.294;2023-05-03T04:35:49;161147.66;;;9.74;69.64
42945;BME280;28584;42.636;23.294;2023-05-03T04:38:15;161185.06;;;9.88;70.06
42945;BME280;28584;42.636;23.294;2023-05-03T04:40:41;161134.34;;;9.69;71.14
42945;BME280;28584;42.636;23.294;2023-05-03T04:43:06;161131.63;;;9.68;69.64
42945;BME280;28584;42.636;23.294;2023-05-03T04:45:32;161139.66;;;9.71;71.32
42945;BME280;28584;42.636;23.294;2023-05-03T04:47:58;161159.69;;;9.79;70.15
42945;BME280;28584;42.636;23.294;2023-05-03T04:50:23;161187.72;;;9.89;69.57
42945;BME280;28584;42.636;23.294;2023-05-03T04:52:49;161213.13;;;9.99;69.20
42945;BME280;28584;42.636;23.294;2023-05-03T04:55:14;161206.41;;;9.96;69.22
42945;BME280;28584;42.636;23.294;2023-05-03T04:57:41;161171.72;;;9.83;70.61
42945;BME280;28584;42.636;23.294;2023-05-03T05:00:07;161179.75;;;9.86;72.84
42945;BME280;28584;42.636;23.294;2023-05-03T05:02:36;161193.06;;;9.91;71.36
42945;BME280;28584;42.636;23.294;2023-05-03T05:05:02;161201.09;;;9.94;72.79
42945;BME280;28584;42.636;23.294;2023-05-03T05:07:28;161206.41;;;9.96;75.73
42945;BME280;28584;42.636;23.294;2023-05-03T05:09:53;161233.16;;;10.06;82.25
42945;BME280;28584;42.636;23.294;2023-05-03T05:12:19;161214.41;;;9.99;83.30
42945;BME280;28584;42.636;23.294;2023-05-03T05:14:44;161195.72;;;9.92;88.69
42945;BME280;28584;42.636;23.294;2023-05-03T05:17:09;161151.69;;;9.76;88.79
42945;BME280;28584;42.636;23.294;2023-05-03T05:19:35;161150.31;;;9.75;92.54
42945;BME280;28584;42.636;23.294;2023-05-03T05:22:00;161171.72;;;9.83;92.76
42945;BME280;28584;42.636;23.294;2023-05-03T05:24:26;161187.72;;;9.89;95.43
42945;BME280;28584;42.636;23.294;2023-05-03T05:26:51;161214.41;;;9.99;92.80
42945;BME280;28584;42.636;23.294;2023-05-03T05:29:17;161194.41;;;9.92;91.63
42945;BME280;28584;42.636;23.294;2023-05-03T05:31:43;161170.38;;;9.83;91.98
42945;BME280;28584;42.636;23.294;2023-05-03T05:34:08;161169.03;;;9.82;92.24
42945;BME280;28584;42.636;23.294;2023-05-03T05:36:34;161166.34;;;9.81;89.19
42945;BME280;28584;42.636;23.294;2023-05-03T05:38:59;161157.03;;;9.78;91.03
42945;BME280;28584;42.636;23.294;2023-05-03T05:41:25;161165.00;;;9.81;91.91
42945;BME280;28584;42.636;23.294;2023-05-03T05:43:50;161143.66;;;9.73;92.90
42945;BME280;28584;42.636;23.294;2023-05-03T05:46:16;161124.97;;;9.66;94.47
42945;BME280;28584;42.636;23.294;2023-05-03T05:48:41;161094.25;;;9.54;98.23
42945;BME280;28584;42.636;23.294;2023-05-03T05:51:07;161079.59;;;9.49;100.00
42945;BME280;28584;42.636;23.294;2023-05-03T05:53:33;161048.88;;;9.37;100.00
42945;BME280;28584;42.636;23.294;2023-05-03T05:55:58;161067.56;;;9.44;100.00
42945;BME280;28584;42.636;23.294;2023-05-03T05:58:24;161068.91;;;9.45;100.00
42945;BME280;28584;42.636;23.294;2023-05-03T06:00:49;161048.88;;;9.37;100.00
42945;BME280;28584;42.636;23.294;2023-05-03T06:03:15;161038.22;;;9.33;100.00
42945;BME280;28584;42.636;23.294;2023-05-03T06:05:41;161072.91;;;9.46;100.00
42945;BME280;28584;42.636;23.294;2023-05-03T06:08:06;161079.59;;;9.49;100.00
42945;BME280;28584;42.636;23.294;2023-05-03T06:10:33;161096.97;;;9.55;100.00
42945;BME280;28584;42.636;23.294;2023-05-03T06:12:58;161094.25;;;9.54;97.44
42945;BME280;28584;42.636;23.294;2023-05-03T06:15:24;161091.59;;;9.53;100.00
42945;BME280;28584;42.636;23.294;2023-05-03T06:17:50;161092.97;;;9.54;100.00
42945;BME280;28584;42.636;23.294;2023-05-03T06:20:16;161096.97;;;9.55;100.00
42945;BME280;28584;42.636;23.294;2023-05-03T06:22:42;161102.28;;;9.57;100.00
42945;BME280;28584;42.636;23.294;2023-05-03T06:25:07;161139.66;;;9.71;100.00
42945;BME280;28584;42.636;23.294;2023-05-03T06:27:33;161166.34;;;9.81;100.00
42945;BME280;28584;42.636;23.294;2023-05-03T06:29:59;161189.06;;;9.90;100.00
42945;BME280;28584;42.636;23.294;2023-05-03T06:32:24;161199.75;;;9.94;100.00
42945;BME280;28584;42.636;23.294;2023-05-03T06:34:50;161201.09;;;9.94;100.00
42945;BME280;28584;42.636;23.294;2023-05-03T06:37:16;161190.41;;;9.90;100.00
42945;BME280;28584;42.636;23.294;2023-05-03T06:39:41;161198.44;;;9.93;100.00
42945;BME280;28584;42.636;23.294;2023-05-03T06:42:07;161206.41;;;9.96;100.00
42945;BME280;28584;42.636;23.294;2023-05-03T06:44:32;161198.44;;;9.93;100.00
42945;BME280;28584;42.636;23.294;2023-05-03T06:46:58;161182.41;;;9.87;100.00
42945;BME280;28584;42.636;23.294;2023-05-03T06:49:23;161179.75;;;9.86;100.00
42945;BME280;28584;42.636;23.294;2023-05-03T06:51:49;161203.75;;;9.95;100.00
42945;BME280;28584;42.636;23.294;2023-05-03T06:54:14;161227.81;;;10.04;100.00
42945;BME280;28584;42.636;23.294;2023-05-03T06:56:40;161239.88;;;10.09;100.00
42945;BME280;28584;42.636;23.294;2023-05-03T06:59:05;161254.56;;;10.14;100.00
42945;BME280;28584;42.636;23.294;2023-05-03T07:01:32;161270.56;;;10.20;100.00
42945;BME280;28584;42.636;23.294;2023-05-03T07:03:58;161293.25;;;10.29;99.17
42945;BME280;28584;42.636;23.294;2023-05-03T07:06:23;161304.00;;;10.33;96.96
42945;BME280;28584;42.636;23.294;2023-05-03T07:08:52;161322.69;;;10.40;95.92
42945;BME280;28584;42.636;23.294;2023-05-03T07:11:20;161305.28;;;10.33;94.20
42945;BME280;28584;42.636;23.294;2023-05-03T07:13:49;161337.38;;;10.45;93.81
42945;BME280;28584;42.636;23.294;2023-05-03T07:16:16;161324.00;;;10.40;93.65
42945;BME280;28584;42.636;23.294;2023-05-03T07:18:41;161356.09;;;10.52;93.25
42945;BME280;28584;42.636;23.294;2023-05-03T07:21:06;161437.56;;;10.83;90.77
42945;BME280;28584;42.636;23.294;2023-05-03T07:23:32;161457.63;;;10.90;85.46
42945;BME280;28584;42.636;23.294;2023-05-03T07:25:57;161517.75;;;11.13;84.41
42945;BME280;28584;42.636;23.294;2023-05-03T07:28:23;161511.03;;;11.10;82.22
42945;BME280;28584;42.636;23.294;2023-05-03T07:30:49;161513.75;;;11.11;81.51
42945;BME280;28584;42.636;23.294;2023-05-03T07:33:15;161543.16;;;11.23;81.64
42945;BME280;28584;42.636;23.294;2023-05-03T07:35:40;161563.22;;;11.30;79.92
42945;BME280;28584;42.636;23.294;2023-05-03T07:38:06;161552.47;;;11.26;81.17
42945;BME280;28584;42.636;23.294;2023-05-03T07:40:31;161573.91;;;11.34;82.09
42945;BME280;28584;42.636;23.294;2023-05-03T07:42:58;161583.22;;;11.38;83.37
42945;BME280;28584;42.636;23.294;2023-05-03T07:45:24;161630.03;;;11.55;84.06
42945;BME280;28584;42.636;23.294;2023-05-03T07:47:49;161623.38;;;11.53;83.49
42945;BME280;28584;42.636;23.294;2023-05-03T07:50:15;161682.25;;;11.75;82.52
42945;BME280;28584;42.636;23.294;2023-05-03T07:52:41;161734.38;;;11.94;80.32
42945;BME280;28584;42.636;23.294;2023-05-03T07:55:08;161813.28;;;12.24;78.14
42945;BME280;28584;42.636;23.294;2023-05-03T07:57:33;161910.94;;;12.60;73.52
42945;BME280;28584;42.636;23.294;2023-05-03T07:59:58;161898.91;;;12.56;71.19
42945;BME280;28584;42.636;23.294;2023-05-03T08:02:24;161984.59;;;12.88;69.88
42945;BME280;28584;42.636;23.294;2023-05-03T08:04:50;162056.88;;;13.15;68.06
42945;BME280;28584;42.636;23.294;2023-05-03T08:07:15;161989.91;;;12.90;67.83
42945;BME280;28584;42.636;23.294;2023-05-03T08:09:43;162042.16;;;13.09;67.06
42945;BME280;28584;42.636;23.294;2023-05-03T08:12:09;162042.16;;;13.09;67.39
42945;BME280;28584;42.636;23.294;2023-05-03T08:14:34;162145.25;;;13.48;65.49
42945;BME280;28584;42.636;23.294;2023-05-03T08:17:01;162236.31;;;13.82;64.12
42945;BME280;28584;42.636;23.294;2023-05-03T08:19:29;162214.84;;;13.74;63.31
42945;BME280;28584;42.636;23.294;2023-05-03T08:21:54;162324.69;;;14.15;63.75
42945;BME280;28584;42.636;23.294;2023-05-03T08:24:20;162367.63;;;14.31;61.95
42945;BME280;28584;42.636;23.294;2023-05-03T08:26:46;162303.28;;;14.07;61.67
42945;BME280;28584;42.636;23.294;2023-05-03T08:29:13;162441.28;;;14.59;61.09
42945;BME280;28584;42.636;23.294;2023-05-03T08:31:38;162545.88;;;14.98;59.42
42945;BME280;28584;42.636;23.294;2023-05-03T08:34:04;162775.19;;;15.83;58.70
42945;BME280;28584;42.636;23.294;2023-05-03T08:36:31;162976.50;;;16.59;54.85
42945;BME280;28584;42.636;23.294;2023-05-03T08:38:57;163043.59;;;16.84;54.71
42945;BME280;28584;42.636;23.294;2023-05-03T08:43:53;163226.19;;;17.52;52.30
42945;BME280;28584;42.636;23.294;2023-05-03T08:46:19;163153.66;;;17.25;52.98
42945;BME280;28584;42.636;23.294;2023-05-03T08:48:49;163328.25;;;17.90;50.59
42945;BME280;28584;42.636;23.294;2023-05-03T08:51:16;163054.31;;;16.88;51.20
42945;BME280;28584;42.636;23.294;2023-05-03T08:53:42;162823.47;;;16.01;53.64
42945;BME280;28584;42.636;23.294;2023-05-03T08:56:09;162737.63;;;15.69;56.15
42945;BME280;28584;42.636;23.294;2023-05-03T08:58:35;162713.47;;;15.60;56.45
42945;BME280;28584;42.636;23.294;2023-05-03T09:01:07;162705.44;;;15.57;57.04
42945;BME280;28584;42.636;23.294;2023-05-03T09:03:35;162584.72;;;15.12;57.12
42945;BME280;28584;42.636;23.294;2023-05-03T09:06:01;162678.59;;;15.47;57.40
42945;BME280;28584;42.636;23.294;2023-05-03T09:08:27;162818.06;;;15.99;56.00
42945;BME280;28584;42.636;23.294;2023-05-03T09:10:53;162954.97;;;16.51;54.66
42945;BME280;28584;42.636;23.294;2023-05-03T09:13:19;163099.97;;;17.05;53.36
42945;BME280;28584;42.636;23.294;2023-05-03T09:15:54;163063.69;;;16.91;52.69
42945;BME280;28584;42.636;23.294;2023-05-03T09:18:20;163000.63;;;16.68;53.32
42945;BME280;28584;42.636;23.294;2023-05-03T09:20:47;162963.03;;;16.54;54.44
42945;BME280;28584;42.636;23.294;2023-05-03T09:25:49;163214.13;;;17.47;52.40
42945;BME280;28584;42.636;23.294;2023-05-03T09:28:16;163266.50;;;17.67;52.40
42945;BME280;28584;42.636;23.294;2023-05-03T09:30:42;163188.53;;;17.38;52.46
42945;BME280;28584;42.636;23.294;2023-05-03T09:33:08;163206.06;;;17.44;53.01
42945;BME280;28584;42.636;23.294;2023-05-03T09:35:36;163332.28;;;17.91;51.75
42945;BME280;28584;42.636;23.294;2023-05-03T09:38:01;163279.91;;;17.72;51.25
42945;BME280;28584;42.636;23.294;2023-05-03T09:40:26;163360.50;;;18.02;51.40
42945;BME280;28584;42.636;23.294;2023-05-03T09:43:12;163588.97;;;18.87;49.29
42945;BME280;28584;42.636;23.294;2023-05-03T09:45:40;163532.53;;;18.66;49.20
42945;BME280;28584;42.636;23.294;2023-05-03T09:48:06;163680.38;;;19.21;48.82
42945;BME280;28584;42.636;23.294;2023-05-03T09:50:32;163804.19;;;19.67;47.05
42945;BME280;28584;42.636;23.294;2023-05-03T09:53:03;163863.34;;;19.89;46.54
42945;BME280;28584;42.636;23.294;2023-05-03T09:55:33;163650.81;;;19.10;47.70
42945;BME280;28584;42.636;23.294;2023-05-03T09:57:59;163562.13;;;18.77;48.22
42945;BME280;28584;42.636;23.294;2023-05-03T10:00:25;163481.47;;;18.47;49.22
42945;BME280;28584;42.636;23.294;2023-05-03T10:02:53;163529.84;;;18.65;48.54
42945;BME280;28584;42.636;23.294;2023-05-03T10:05:20;163462.66;;;18.40;48.95
42945;BME280;28584;42.636;23.294;2023-05-03T10:07:49;163384.66;;;18.11;49.14
42945;BME280;28584;42.636;23.294;2023-05-03T10:10:15;163382.00;;;18.10;50.79
42945;BME280;28584;42.636;23.294;2023-05-03T10:12:42;163497.63;;;18.53;50.32
42945;BME280;28584;42.636;23.294;2023-05-03T10:15:09;163489.56;;;18.50;50.28
42945;BME280;28584;42.636;23.294;2023-05-03T10:17:38;163755.72;;;19.49;48.47
42945;BME280;28584;42.636;23.294;2023-05-03T10:20:25;163677.72;;;19.20;47.93
42945;BME280;28584;42.636;23.294;2023-05-03T10:25:29;163594.38;;;18.89;48.46
42945;BME280;28584;42.636;23.294;2023-05-03T10:28:05;163347.06;;;17.97;49.75
42945;BME280;28584;42.636;23.294;2023-05-03T10:30:35;163411.53;;;18.21;50.34
42945;BME280;28584;42.636;23.294;2023-05-03T10:35:38;163519.09;;;18.61;49.74
42945;BME280;28584;42.636;23.294;2023-05-03T10:38:19;163629.31;;;19.02;49.24
42945;BME280;28584;42.636;23.294;2023-05-03T10:40:44;163541.94;;;18.69;49.17
42945;BME280;28584;42.636;23.294;2023-05-03T10:46:04;163460.00;;;18.39;50.39
42945;BME280;28584;42.636;23.294;2023-05-03T10:48:34;163320.25;;;17.87;50.85
42945;BME280;28584;42.636;23.294;2023-05-03T10:51:34;163278.59;;;17.71;51.28
42945;BME280;28584;42.636;23.294;2023-05-03T10:54:02;163243.66;;;17.58;51.80
42945;BME280;28584;42.636;23.294;2023-05-03T10:56:28;163027.47;;;16.78;52.95
42945;BME280;28584;42.636;23.294;2023-05-03T10:58:55;162963.03;;;16.54;54.21
42945;BME280;28584;42.636;23.294;2023-05-03T11:01:22;162956.34;;;16.51;54.90
42945;BME280;28584;42.636;23.294;2023-05-03T11:06:31;162920.03;;;16.37;54.67
42945;BME280;28584;42.636;23.294;2023-05-03T11:08:58;162944.25;;;16.47;55.38
42945;BME280;28584;42.636;23.294;2023-05-03T11:11:23;163091.91;;;17.02;54.80
42945;BME280;28584;42.636;23.294;2023-05-03T11:13:50;163067.72;;;16.93;54.47
42945;BME280;28584;42.636;23.294;2023-05-03T11:16:16;163070.44;;;16.94;54.57
42945;BME280;28584;42.636;23.294;2023-05-03T11:18:41;163097.28;;;17.04;54.46
42945;BME280;28584;42.636;23.294;2023-05-03T11:21:07;163125.44;;;17.14;54.50
42945;BME280;28584;42.636;23.294;2023-05-03T11:23:32;163051.66;;;16.87;54.55
42945;BME280;28584;42.636;23.294;2023-05-03T11:25:58;163024.78;;;16.77;56.14
42945;BME280;28584;42.636;23.294;2023-05-03T11:28:24;162921.41;;;16.38;55.92
42945;BME280;28584;42.636;23.294;2023-05-03T11:30:50;162924.06;;;16.39;57.15
42945;BME280;28584;42.636;23.294;2023-05-03T11:33:15;162940.22;;;16.45;56.97
42945;BME280;28584;42.636;23.294;2023-05-03T11:35:41;162922.75;;;16.38;57.18
42945;BME280;28584;42.636;23.294;2023-05-03T11:38:07;163035.53;;;16.81;56.89
42945;BME280;28584;42.636;23.294;2023-05-03T11:40:33;163207.38;;;17.45;55.38
42945;BME280;28584;42.636;23.294;2023-05-03T11:43:01;163398.13;;;18.16;54.01
42945;BME280;28584;42.636;23.294;2023-05-03T11:45:47;163324.22;;;17.88;54.42
42945;BME280;28584;42.636;23.294;2023-05-03T11:48:15;163298.72;;;17.79;53.95
42945;BME280;28584;42.636;23.294;2023-05-03T11:53:16;163324.22;;;17.88;54.43
42945;BME280;28584;42.636;23.294;2023-05-03T11:55:44;163423.63;;;18.25;54.22
42945;BME280;28584;42.636;23.294;2023-05-03T12:00:49;163482.84;;;18.47;53.29
42945;BME280;28584;42.636;23.294;2023-05-03T12:03:22;163435.75;;;18.30;53.17
42945;BME280;28584;42.636;23.294;2023-05-03T12:05:49;163372.63;;;18.06;54.37
42945;BME280;28584;42.636;23.294;2023-05-03T12:08:16;163242.31;;;17.58;53.67
42945;BME280;28584;42.636;23.294;2023-05-03T12:10:43;163177.81;;;17.34;55.02
42945;BME280;28584;42.636;23.294;2023-05-03T12:13:09;163215.44;;;17.48;55.20
42945;BME280;28584;42.636;23.294;2023-05-03T12:15:36;163244.97;;;17.59;55.48
42945;BME280;28584;42.636;23.294;2023-05-03T12:18:10;163220.84;;;17.50;55.66
42945;BME280;28584;42.636;23.294;2023-05-03T12:20:37;163220.84;;;17.50;55.81
42945;BME280;28584;42.636;23.294;2023-05-03T12:23:07;163118.75;;;17.12;55.60
42945;BME280;28584;42.636;23.294;2023-05-03T12:25:34;162949.66;;;16.49;56.61
42945;BME280;28584;42.636;23.294;2023-05-03T12:28:04;162908.00;;;16.33;57.60
42945;BME280;28584;42.636;23.294;2023-05-03T12:30:30;162855.69;;;16.13;58.21
42945;BME280;28584;42.636;23.294;2023-05-03T12:32:56;162736.28;;;15.69;59.95
42945;BME280;28584;42.636;23.294;2023-05-03T12:35:22;162688.00;;;15.51;61.35
42945;BME280;28584;42.636;23.294;2023-05-03T12:37:48;162610.22;;;15.22;62.96
42945;BME280;28584;42.636;23.294;2023-05-03T12:40:15;162544.50;;;14.97;66.12
42945;BME280;28584;42.636;23.294;2023-05-03T12:42:41;162434.59;;;14.56;69.38
42945;BME280;28584;42.636;23.294;2023-05-03T12:45:07;162414.50;;;14.49;75.33
42945;BME280;28584;42.636;23.294;2023-05-03T12:47:33;162352.91;;;14.26;78.41
42945;BME280;28584;42.636;23.294;2023-05-03T12:49:59;162275.13;;;13.97;84.10
42945;BME280;28584;42.636;23.294;2023-05-03T12:52:26;162237.63;;;13.82;90.08
42945;BME280;28584;42.636;23.294;2023-05-03T12:54:52;162234.97;;;13.81;94.44
42945;BME280;28584;42.636;23.294;2023-05-03T12:57:17;162182.72;;;13.62;99.57
42945;BME280;28584;42.636;23.294;2023-05-03T12:59:43;162126.50;;;13.41;100.00
42945;BME280;28584;42.636;23.294;2023-05-03T13:02:11;162099.72;;;13.31;100.00
42945;BME280;28584;42.636;23.294;2023-05-03T13:04:36;162064.91;;;13.18;100.00